Time;durP1;ratioP1;P1;durP2;ratioP2;P2;SDS_P1;SDS_P2;PMS_P1;PMS_P2;Temp;Humidity;BMP_temperature;BMP_pressure;BME280_temperature;BME280_humidity;BME280_pressure;Samples;Min_cycle;Max_cycle;Signal;HPM_P1;HPM_P2
2022/12/31 00:01:35;;;;;;;5.72;1.88;;;13.60;99.30;;;;;;5045230;28;20092;-78
2022/12/31 00:04:01;;;;;;;5.97;3.30;;;13.60;98.70;;;;;;5045472;28;20021;-78
2022/12/31 00:06:32;;;;;;;4.82;2.97;;;13.70;98.30;;;;;;5047245;28;20052;-78
2022/12/31 00:09:00;;;;;;;4.15;2.25;;;13.60;99.50;;;;;;5036428;28;20084;-79
2022/12/31 00:11:28;;;;;;;6.47;3.53;;;13.60;99.40;;;;;;5050333;28;20028;-75
2022/12/31 00:13:55;;;;;;;4.07;2.03;;;13.70;99.40;;;;;;5042218;28;20036;-76
2022/12/31 00:16:30;;;;;;;3.45;2.25;;;13.70;99.20;;;;;;5049841;28;20032;-77
2022/12/31 00:18:58;;;;;;;2.58;1.80;;;13.60;99.90;;;;;;5037204;28;20942;-79
2022/12/31 00:21:25;;;;;;;3.60;1.10;;;13.60;99.90;;;;;;5059255;28;20009;-76
2022/12/31 00:23:50;;;;;;;4.43;1.10;;;13.60;99.90;;;;;;5049096;28;20025;-75
2022/12/31 00:26:19;;;;;;;2.13;0.95;;;13.60;99.90;;;;;;5056337;28;20047;-76
2022/12/31 00:28:46;;;;;;;2.28;0.95;;;13.60;99.90;;;;;;5050322;28;20021;-76
2022/12/31 00:31:16;;;;;;;2.17;0.70;;;13.60;99.90;;;;;;5036174;28;20071;-75
2022/12/31 00:33:42;;;;;;;2.08;0.80;;;13.50;99.90;;;;;;5031143;28;20026;-76
2022/12/31 00:36:12;;;;;;;2.45;0.80;;;13.50;99.90;;;;;;5056277;28;20143;-74
2022/12/31 00:38:39;;;;;;;3.65;0.93;;;13.50;99.90;;;;;;5054867;28;20033;-75
2022/12/31 00:41:05;;;;;;;3.30;1.10;;;13.50;99.90;;;;;;5047159;28;20028;-76
2022/12/31 00:43:31;;;;;;;3.80;1.40;;;13.40;99.90;;;;;;5038803;28;20028;-76
2022/12/31 00:45:58;;;;;;;4.70;1.85;;;13.50;99.90;;;;;;5045486;28;20025;-75
2022/12/31 00:48:24;;;;;;;1.88;0.80;;;13.50;99.90;;;;;;5038891;28;20530;-76
2022/12/31 00:50:49;;;;;;;2.80;1.00;;;13.40;99.90;;;;;;5039121;28;20024;-75
2022/12/31 00:53:15;;;;;;;4.88;1.08;;;13.40;99.90;;;;;;5045398;28;20033;-76
2022/12/31 00:55:41;;;;;;;2.45;1.00;;;13.30;99.90;;;;;;5037531;28;20052;-75
2022/12/31 00:58:07;;;;;;;4.68;1.90;;;13.40;99.90;;;;;;5052708;28;20029;-76
2022/12/31 01:00:32;;;;;;;3.95;1.50;;;13.40;99.90;;;;;;5050684;28;20033;-75
2022/12/31 01:02:58;;;;;;;2.40;1.02;;;13.40;99.90;;;;;;5054601;28;20419;-76
2022/12/31 01:05:24;;;;;;;3.05;1.27;;;13.40;99.90;;;;;;5027079;28;20028;-76
2022/12/31 01:07:52;;;;;;;2.75;1.40;;;13.40;99.90;;;;;;5064723;28;20020;-76
2022/12/31 01:13:02;;;;;;;7.63;2.60;;;13.40;99.90;;;;;;5051327;28;20040;-76
2022/12/31 01:15:34;;;;;;;4.22;2.00;;;13.30;99.90;;;;;;5051248;28;20037;-76
2022/12/31 01:18:00;;;;;;;4.85;2.72;;;13.30;99.90;;;;;;5023063;28;20067;-76
2022/12/31 01:20:25;;;;;;;5.20;2.88;;;13.20;99.90;;;;;;5034104;28;20052;-77
2022/12/31 01:22:51;;;;;;;6.55;2.70;;;13.20;99.90;;;;;;5043364;28;20033;-75
2022/12/31 01:25:16;;;;;;;3.78;2.20;;;13.20;99.90;;;;;;5037175;28;20048;-75
2022/12/31 01:27:42;;;;;;;6.45;2.55;;;13.20;99.90;;;;;;5056642;28;20032;-75
2022/12/31 01:30:08;;;;;;;7.50;2.33;;;13.20;99.90;;;;;;5031447;28;20061;-76
2022/12/31 01:32:34;;;;;;;4.45;2.10;;;13.20;99.90;;;;;;5044909;28;20048;-76
2022/12/31 01:34:59;;;;;;;4.53;2.40;;;13.30;99.90;;;;;;5041307;28;20479;-76
2022/12/31 01:37:27;;;;;;;6.15;2.60;;;13.20;99.90;;;;;;5044453;28;20020;-75
2022/12/31 01:39:53;;;;;;;6.28;2.72;;;13.30;99.90;;;;;;5054843;28;20120;-76
2022/12/31 01:42:18;;;;;;;4.55;2.33;;;13.30;99.90;;;;;;5037891;28;20143;-76
2022/12/31 01:44:51;;;;;;;4.20;2.53;;;13.30;99.90;;;;;;5060934;28;20020;-77
2022/12/31 01:47:31;;;;;;;4.97;2.40;;;13.40;99.90;;;;;;5051416;28;20025;-77
2022/12/31 01:50:05;;;;;;;4.70;2.83;;;13.40;99.90;;;;;;5040406;28;20479;-77
2022/12/31 01:52:36;;;;;;;5.03;3.08;;;13.30;99.90;;;;;;5037974;28;20067;-77
2022/12/31 01:55:16;;;;;;;5.30;2.65;;;13.30;99.90;;;;;;5042264;28;20078;-76
2022/12/31 01:57:45;;;;;;;6.07;2.63;;;13.30;99.90;;;;;;5045038;28;20021;-76
2022/12/31 02:00:11;;;;;;;6.53;3.22;;;13.30;99.90;;;;;;5056140;28;20017;-77
2022/12/31 02:02:37;;;;;;;4.30;2.50;;;13.30;99.90;;;;;;5046209;28;20020;-76
2022/12/31 02:05:17;;;;;;;8.32;3.78;;;13.30;99.90;;;;;;5052924;28;20021;-76
2022/12/31 02:07:46;;;;;;;5.55;2.83;;;13.30;99.90;;;;;;5031840;28;20017;-76
2022/12/31 02:10:11;;;;;;;5.07;2.55;;;13.40;99.90;;;;;;5064126;28;20028;-76
2022/12/31 02:12:38;;;;;;;6.97;2.67;;;13.30;99.90;;;;;;5040021;28;20526;-76
2022/12/31 02:15:04;;;;;;;7.25;2.13;;;13.30;99.90;;;;;;5046046;28;20421;-76
2022/12/31 02:18:02;;;;;;;6.80;2.72;;;13.20;99.90;;;;;;5030623;28;20118;-76
2022/12/31 02:20:48;;;;;;;5.53;2.30;;;13.30;99.90;;;;;;5055304;28;20055;-76
2022/12/31 02:23:41;;;;;;;5.00;2.70;;;13.30;99.90;;;;;;5033775;28;20527;-76
2022/12/31 02:26:42;;;;;;;6.70;2.97;;;13.20;99.90;;;;;;5038524;28;20053;-76
2022/12/31 02:29:41;;;;;;;6.43;2.80;;;13.10;99.90;;;;;;5051575;28;20024;-75
2022/12/31 02:32:16;;;;;;;7.20;3.17;;;13.20;99.90;;;;;;5043914;28;20037;-76
2022/12/31 02:34:54;;;;;;;7.22;3.10;;;13.20;99.90;;;;;;5051550;28;20059;-75
2022/12/31 02:37:23;;;;;;;5.00;3.15;;;13.30;99.90;;;;;;5038830;28;20029;-76
2022/12/31 02:39:50;;;;;;;4.45;2.20;;;13.30;99.90;;;;;;5044380;28;20029;-76
2022/12/31 02:42:16;;;;;;;6.47;3.10;;;13.30;99.90;;;;;;5051683;28;20062;-76
2022/12/31 02:44:42;;;;;;;5.68;2.78;;;13.30;99.90;;;;;;5050552;28;20503;-76
2022/12/31 02:47:07;;;;;;;6.25;2.85;;;13.30;99.90;;;;;;5055299;28;20029;-76
2022/12/31 02:50:01;;;;;;;5.03;2.83;;;13.30;99.90;;;;;;5043840;28;20021;-76
2022/12/31 02:52:41;;;;;;;5.53;2.95;;;13.30;99.90;;;;;;5050561;28;20118;-76
2022/12/31 02:55:38;;;;;;;5.80;3.25;;;13.30;99.90;;;;;;5045488;28;20506;-76
2022/12/31 03:02:12;;;;;;;5.28;2.42;;;13.30;99.90;;;;;;5044994;28;20080;-76
2022/12/31 03:06:52;;;;;;;7.40;2.40;;;13.10;99.90;;;;;;5052691;28;20498;-75
2022/12/31 03:09:19;;;;;;;5.95;2.08;;;13.10;99.90;;;;;;5038922;28;20033;-76
2022/12/31 03:14:29;;;;;;;6.03;2.10;;;13.10;99.90;;;;;;5034605;28;20036;-76
2022/12/31 03:16:54;;;;;;;5.05;2.13;;;13.10;99.90;;;;;;5053917;28;20029;-77
2022/12/31 03:27:32;;;;;;;6.75;2.38;;;13.00;99.90;;;;;;5058365;28;20046;-75
2022/12/31 03:29:58;;;;;;;4.82;2.58;;;13.00;99.90;;;;;;5030992;28;20041;-76
2022/12/31 03:32:24;;;;;;;5.47;2.10;;;13.00;99.90;;;;;;5055356;28;20025;-77
2022/12/31 03:34:49;;;;;;;6.00;2.00;;;13.00;99.90;;;;;;5029561;28;20041;-76
2022/12/31 03:37:15;;;;;;;6.50;2.63;;;12.90;99.90;;;;;;5052831;28;20475;-77
2022/12/31 03:39:40;;;;;;;7.53;2.85;;;13.00;99.90;;;;;;5059457;28;20495;-76
2022/12/31 03:42:06;;;;;;;5.43;2.30;;;12.90;99.90;;;;;;5045654;28;20026;-76
2022/12/31 03:44:32;;;;;;;4.43;2.00;;;13.00;99.90;;;;;;5054910;28;20025;-76
2022/12/31 03:46:57;;;;;;;5.88;2.00;;;12.90;99.90;;;;;;5046163;28;20029;-76
2022/12/31 03:49:23;;;;;;;9.80;3.85;;;13.00;99.90;;;;;;5036560;28;20083;-76
2022/12/31 03:51:49;;;;;;;10.55;3.60;;;13.00;99.90;;;;;;5051180;28;20048;-77
2022/12/31 03:54:14;;;;;;;8.60;4.25;;;12.90;99.90;;;;;;5039249;28;20021;-77
2022/12/31 03:56:40;;;;;;;8.00;3.90;;;12.90;99.90;;;;;;5024881;28;20030;-76
2022/12/31 03:59:06;;;;;;;7.53;4.55;;;12.90;99.90;;;;;;5040860;28;20052;-76
2022/12/31 04:01:31;;;;;;;9.18;5.65;;;12.90;99.90;;;;;;5053855;28;20474;-77
2022/12/31 04:03:57;;;;;;;9.23;5.65;;;12.90;99.90;;;;;;5052230;28;20491;-76
2022/12/31 04:06:22;;;;;;;9.25;5.60;;;12.90;99.90;;;;;;5037485;28;20028;-76
2022/12/31 04:08:48;;;;;;;8.95;5.38;;;12.90;99.90;;;;;;5045463;28;20036;-75
2022/12/31 04:11:14;;;;;;;10.05;6.38;;;12.90;99.90;;;;;;5033598;28;20041;-76
2022/12/31 04:13:39;;;;;;;12.20;7.35;;;12.90;99.90;;;;;;5056443;28;20025;-77
2022/12/31 04:16:05;;;;;;;11.10;7.10;;;12.90;99.90;;;;;;5048678;28;20086;-75
2022/12/31 04:18:30;;;;;;;10.68;7.18;;;12.90;99.90;;;;;;5048616;28;20036;-75
2022/12/31 04:21:05;;;;;;;12.02;6.93;;;12.80;99.90;;;;;;5039799;28;20036;-76
2022/12/31 04:23:31;;;;;;;9.25;6.07;;;12.80;99.90;;;;;;5059242;28;20417;-76
2022/12/31 04:25:56;;;;;;;13.23;8.25;;;12.90;99.90;;;;;;5019603;28;20110;-76
2022/12/31 04:28:22;;;;;;;10.60;6.95;;;12.80;99.90;;;;;;5045672;28;20021;-76
2022/12/31 04:30:48;;;;;;;12.40;7.80;;;12.90;99.90;;;;;;5049807;28;20055;-76
2022/12/31 04:33:13;;;;;;;17.50;9.45;;;12.90;99.90;;;;;;5045780;28;20021;-77
2022/12/31 04:35:39;;;;;;;11.70;7.25;;;12.90;99.90;;;;;;5047911;28;20383;-76
2022/12/31 04:38:05;;;;;;;10.98;6.68;;;12.90;99.90;;;;;;5039468;28;20032;-76
2022/12/31 04:40:30;;;;;;;10.07;5.95;;;12.90;99.90;;;;;;5063344;28;20063;-76
2022/12/31 04:42:56;;;;;;;9.40;6.63;;;13.00;99.90;;;;;;5039303;28;20602;-75
2022/12/31 04:45:22;;;;;;;10.80;7.90;;;12.90;99.90;;;;;;5045293;28;20033;-75
2022/12/31 04:47:47;;;;;;;10.68;6.82;;;12.90;99.90;;;;;;5037944;28;20096;-75
2022/12/31 04:50:13;;;;;;;8.55;6.05;;;12.90;99.90;;;;;;5059865;28;20086;-77
2022/12/31 04:52:39;;;;;;;10.18;6.80;;;13.00;99.90;;;;;;5041916;28;20028;-75
2022/12/31 04:55:05;;;;;;;8.90;6.30;;;13.00;99.90;;;;;;5059730;28;20040;-76
2022/12/31 04:57:30;;;;;;;7.70;5.18;;;13.00;99.90;;;;;;5038704;28;20017;-77
2022/12/31 04:59:56;;;;;;;10.30;6.93;;;13.00;99.90;;;;;;5043755;28;20419;-76
2022/12/31 05:02:22;;;;;;;7.35;4.80;;;13.00;99.90;;;;;;5040940;28;20025;-76
2022/12/31 05:04:47;;;;;;;10.32;7.13;;;13.00;99.90;;;;;;5045218;28;20013;-76
2022/12/31 05:07:13;;;;;;;8.50;5.72;;;13.00;99.90;;;;;;5041466;28;20160;-77
2022/12/31 05:09:38;;;;;;;9.27;5.70;;;13.00;99.90;;;;;;5023880;28;20021;-76
2022/12/31 05:12:04;;;;;;;7.70;5.10;;;13.00;99.90;;;;;;5042594;28;20018;-77
2022/12/31 05:14:30;;;;;;;8.38;5.15;;;13.00;99.90;;;;;;5040158;28;20506;-77
2022/12/31 05:16:57;;;;;;;11.02;6.47;;;13.00;99.90;;;;;;5041503;28;20116;-76
2022/12/31 05:19:22;;;;;;;10.05;6.28;;;13.00;99.90;;;;;;5038584;28;20501;-75
2022/12/31 05:22:27;;;;;;;10.02;6.38;;;13.00;99.90;;;;;;5039847;28;20017;-75
2022/12/31 05:24:33;;;;;;;11.23;7.28;;;12.90;99.90;;;;;;5039644;28;20025;-75
2022/12/31 05:26:59;;;;;;;8.10;4.85;;;13.00;99.90;;;;;;5058706;28;20494;-76
2022/12/31 05:29:25;;;;;;;7.72;4.55;;;13.00;99.90;;;;;;5032400;28;20032;-76
2022/12/31 05:31:51;;;;;;;8.30;4.93;;;13.00;99.90;;;;;;5041384;28;20021;-76
2022/12/31 05:34:16;;;;;;;5.60;3.60;;;13.00;99.90;;;;;;5020190;28;20388;-75
2022/12/31 05:36:42;;;;;;;4.72;2.50;;;13.00;99.90;;;;;;5049263;28;20103;-76
2022/12/31 05:39:07;;;;;;;3.70;2.40;;;13.00;99.90;;;;;;5037228;28;20119;-76
2022/12/31 05:41:33;;;;;;;3.10;1.98;;;13.00;99.90;;;;;;5050908;28;20082;-76
2022/12/31 05:43:59;;;;;;;3.95;2.05;;;13.00;99.90;;;;;;5034496;28;20025;-75
2022/12/31 05:46:24;;;;;;;4.28;2.35;;;13.00;99.90;;;;;;5041160;28;20025;-75
2022/12/31 05:48:50;;;;;;;3.35;1.80;;;13.10;99.90;;;;;;5039553;28;20031;-75
2022/12/31 05:51:15;;;;;;;3.08;1.50;;;13.00;99.90;;;;;;5045393;28;20026;-75
2022/12/31 05:53:41;;;;;;;3.33;1.52;;;13.10;99.90;;;;;;5040250;28;20064;-75
2022/12/31 05:56:07;;;;;;;2.75;1.10;;;13.10;99.90;;;;;;5037938;28;20052;-76
2022/12/31 05:58:32;;;;;;;2.88;1.50;;;13.10;99.90;;;;;;5021348;28;20029;-75
2022/12/31 06:00:58;;;;;;;2.78;1.55;;;13.10;99.90;;;;;;5044072;28;20044;-76
2022/12/31 06:03:24;;;;;;;1.70;0.90;;;13.10;99.90;;;;;;5039030;28;20415;-74
2022/12/31 06:05:50;;;;;;;2.75;1.65;;;13.10;99.90;;;;;;5025832;28;20572;-76
2022/12/31 06:08:15;;;;;;;2.35;1.60;;;13.10;99.90;;;;;;5043029;28;20028;-76
2022/12/31 06:10:41;;;;;;;2.55;1.60;;;13.10;99.90;;;;;;5038764;28;20088;-76
2022/12/31 06:13:07;;;;;;;1.92;1.20;;;13.10;99.90;;;;;;5039642;28;20044;-76
2022/12/31 06:15:37;;;;;;;3.47;2.05;;;13.10;99.90;;;;;;5024071;28;20069;-76
2022/12/31 06:18:03;;;;;;;2.33;1.40;;;13.20;99.90;;;;;;5036026;28;20025;-75
2022/12/31 06:20:28;;;;;;;2.20;1.35;;;13.20;99.90;;;;;;5039155;28;20294;-75
2022/12/31 06:22:55;;;;;;;3.83;2.30;;;13.10;99.90;;;;;;5044580;28;20688;-75
2022/12/31 06:25:20;;;;;;;3.97;2.50;;;13.20;99.90;;;;;;5030916;28;20053;-76
2022/12/31 06:27:46;;;;;;;4.00;2.53;;;13.10;99.90;;;;;;5036583;28;20030;-75
2022/12/31 06:30:12;;;;;;;2.60;1.67;;;13.20;99.90;;;;;;5021517;28;20048;-76
2022/12/31 06:32:39;;;;;;;2.97;2.00;;;13.20;99.90;;;;;;5039232;28;20021;-75
2022/12/31 06:35:06;;;;;;;3.35;1.70;;;13.20;99.90;;;;;;5017868;28;20501;-75
2022/12/31 06:37:31;;;;;;;3.15;1.80;;;13.20;99.90;;;;;;5038853;28;20111;-75
2022/12/31 06:39:57;;;;;;;4.70;2.30;;;13.20;99.90;;;;;;5032966;28;20131;-76
2022/12/31 06:42:23;;;;;;;4.22;1.80;;;13.20;99.90;;;;;;5035868;28;20025;-75
2022/12/31 06:44:48;;;;;;;3.05;1.63;;;13.20;99.90;;;;;;5030469;28;20021;-75
2022/12/31 06:47:14;;;;;;;3.40;1.60;;;13.30;99.90;;;;;;5036590;28;20021;-74
2022/12/31 06:49:40;;;;;;;3.33;1.90;;;13.30;99.90;;;;;;5037486;28;20036;-75
2022/12/31 06:52:05;;;;;;;3.17;1.63;;;13.40;99.90;;;;;;5018425;28;20029;-75
2022/12/31 06:54:31;;;;;;;2.75;1.45;;;13.40;99.90;;;;;;5034608;28;20044;-75
2022/12/31 06:56:58;;;;;;;2.70;1.20;;;13.40;99.90;;;;;;5030977;28;20027;-75
2022/12/31 06:59:26;;;;;;;3.40;1.90;;;13.40;99.90;;;;;;5038457;28;20028;-74
2022/12/31 07:02:12;;;;;;;2.72;1.83;;;13.50;99.90;;;;;;5018575;28;20033;-75
2022/12/31 07:04:56;;;;;;;2.85;1.23;;;13.50;99.90;;;;;;5036304;28;20018;-75
2022/12/31 07:07:37;;;;;;;3.63;1.55;;;13.60;99.90;;;;;;5031873;28;20119;-74
2022/12/31 07:10:06;;;;;;;3.55;1.63;;;13.70;99.90;;;;;;5038033;28;20092;-73
2022/12/31 07:12:56;;;;;;;3.67;1.50;;;13.70;99.90;;;;;;5037638;28;20033;-73
2022/12/31 07:15:52;;;;;;;2.90;1.63;;;13.80;99.90;;;;;;5051279;28;20044;-73
2022/12/31 07:18:45;;;;;;;4.32;2.17;;;13.90;99.90;;;;;;5032251;28;20520;-73
2022/12/31 07:21:13;;;;;;;4.88;2.15;;;13.90;99.90;;;;;;5048334;28;20033;-73
2022/12/31 07:23:40;;;;;;;5.40;2.92;;;14.00;99.90;;;;;;5040052;28;20059;-74
2022/12/31 07:26:22;;;;;;;4.38;2.50;;;14.00;99.90;;;;;;5063579;28;20040;-75
2022/12/31 07:28:53;;;;;;;4.95;2.63;;;14.00;99.90;;;;;;5045446;28;20132;-74
2022/12/31 07:31:54;;;;;;;5.22;3.63;;;14.00;99.90;;;;;;5041990;28;20049;-73
2022/12/31 07:34:56;;;;;;;5.85;3.20;;;14.00;99.90;;;;;;4986472;28;20547;-74
2022/12/31 07:38:07;;;;;;;5.32;3.35;;;14.10;99.90;;;;;;5050492;28;20075;-73
2022/12/31 07:40:45;;;;;;;;;;;14.10;99.90;;;;;;5046105;28;20125;-75
2022/12/31 07:43:34;;;;;;;5.72;3.33;;;14.10;99.90;;;;;;5035197;28;19909;-74
2022/12/31 07:46:12;;;;;;;7.97;4.50;;;14.20;99.90;;;;;;5033064;28;20498;-73
2022/12/31 07:48:39;;;;;;;7.03;3.67;;;14.10;99.90;;;;;;5046182;28;20275;-74
2022/12/31 07:51:05;;;;;;;4.82;3.22;;;14.20;99.90;;;;;;5045653;28;20032;-73
2022/12/31 07:53:31;;;;;;;6.65;4.13;;;14.20;99.90;;;;;;5039772;28;20439;-74
2022/12/31 07:56:03;;;;;;;11.75;4.53;;;14.20;99.90;;;;;;5041840;28;20104;-74
2022/12/31 07:59:08;;;;;;;6.20;3.10;;;14.10;99.90;;;;;;5039260;28;20021;-73
2022/12/31 08:01:44;;;;;;;5.95;3.13;;;14.20;99.90;;;;;;5041842;28;20017;-73
2022/12/31 08:04:39;;;;;;;4.35;2.58;;;14.10;99.90;;;;;;5036538;28;20036;-73
2022/12/31 08:07:40;;;;;;;7.22;3.25;;;14.20;99.90;;;;;;5050082;28;20154;-75
2022/12/31 08:10:15;;;;;;;3.55;1.92;;;14.20;99.90;;;;;;5041305;28;20403;-72
2022/12/31 08:12:41;;;;;;;4.50;2.00;;;14.30;99.90;;;;;;5027578;28;20028;-74
2022/12/31 08:15:15;;;;;;;3.25;1.48;;;14.30;99.90;;;;;;5041145;28;20032;-73
2022/12/31 08:17:41;;;;;;;2.13;0.85;;;14.30;99.90;;;;;;5040604;28;20025;-73
2022/12/31 08:20:13;;;;;;;2.60;0.80;;;14.10;99.90;;;;;;5042923;28;20055;-73
2022/12/31 08:22:41;;;;;;;3.78;0.63;;;14.10;99.90;;;;;;5040326;28;20072;-74
2022/12/31 08:25:16;;;;;;;2.30;0.85;;;14.10;99.90;;;;;;5032592;28;20455;-74
2022/12/31 08:27:44;;;;;;;1.55;0.60;;;14.00;99.90;;;;;;5040812;28;20052;-73
2022/12/31 08:30:18;;;;;;;3.50;0.70;;;14.00;99.90;;;;;;5035836;28;20220;-74
2022/12/31 08:33:16;;;;;;;4.10;0.88;;;14.10;99.90;;;;;;5048383;28;20040;-72
2022/12/31 08:36:04;;;;;;;0.60;0.40;;;14.00;99.90;;;;;;5033107;28;20061;-75
2022/12/31 08:38:37;;;;;;;2.42;0.60;;;14.00;99.90;;;;;;5048903;28;20028;-74
2022/12/31 08:41:32;;;;;;;3.08;0.82;;;14.00;99.90;;;;;;5041034;28;20051;-72
2022/12/31 08:44:27;;;;;;;1.55;0.60;;;14.00;99.90;;;;;;5059607;28;20021;-74
2022/12/31 08:46:57;;;;;;;1.40;0.57;;;14.00;99.90;;;;;;5043096;28;20184;-75
2022/12/31 08:49:27;;;;;;;4.13;1.05;;;14.00;99.90;;;;;;5043399;28;20083;-75
2022/12/31 08:51:53;;;;;;;2.03;0.52;;;13.90;99.90;;;;;;5041355;28;20071;-75
2022/12/31 08:54:20;;;;;;;2.13;0.60;;;13.90;99.90;;;;;;5043082;28;20123;-73
2022/12/31 08:57:06;;;;;;;1.10;0.55;;;13.90;99.90;;;;;;5046359;28;20067;-73
2022/12/31 08:59:46;;;;;;;2.97;0.60;;;13.80;99.90;;;;;;5048698;28;20104;-73
2022/12/31 09:02:29;;;;;;;5.25;0.80;;;13.80;99.90;;;;;;5030323;28;20624;-73
2022/12/31 09:05:37;;;;;;;2.33;0.70;;;13.90;99.90;;;;;;5060602;28;20029;-74
2022/12/31 09:08:08;;;;;;;3.08;0.82;;;13.90;99.90;;;;;;5048941;28;20828;-74
2022/12/31 09:11:06;;;;;;;3.05;1.08;;;13.90;99.90;;;;;;5045321;28;20131;-76
2022/12/31 09:13:50;;;;;;;7.43;2.10;;;13.80;99.90;;;;;;5027384;28;20031;-72
2022/12/31 09:16:28;;;;;;;9.07;4.28;;;13.90;99.90;;;;;;5037867;28;20502;-75
2022/12/31 09:18:53;;;;;;;9.20;4.97;;;14.00;99.90;;;;;;5046420;28;20029;-75
2022/12/31 09:21:19;;;;;;;14.27;7.10;;;13.90;99.90;;;;;;5036072;28;20147;-73
2022/12/31 09:23:45;;;;;;;12.25;6.35;;;14.00;99.90;;;;;;5040088;28;20024;-75
2022/12/31 09:26:23;;;;;;;11.50;6.88;;;14.00;99.90;;;;;;5027424;28;20041;-74
2022/12/31 09:28:48;;;;;;;12.50;6.90;;;14.00;99.90;;;;;;5053755;28;20055;-75
2022/12/31 09:31:53;;;;;;;11.93;5.53;;;14.00;99.90;;;;;;5042482;28;20103;-74
2022/12/31 09:34:33;;;;;;;6.55;2.53;;;14.00;99.90;;;;;;5031814;28;20033;-76
2022/12/31 09:37:05;;;;;;;5.35;2.53;;;14.10;99.90;;;;;;5045322;28;20111;-76
2022/12/31 09:39:42;;;;;;;7.13;2.30;;;14.20;99.90;;;;;;5053049;28;20495;-75
2022/12/31 09:42:56;;;;;;;5.20;2.08;;;14.20;99.90;;;;;;5038158;28;20037;-76
2022/12/31 09:45:28;;;;;;;5.95;2.13;;;14.20;99.90;;;;;;5049914;28;20031;-76
2022/12/31 09:48:05;;;;;;;3.47;1.52;;;14.30;99.90;;;;;;5037558;28;20064;-76
2022/12/31 09:50:51;;;;;;;6.03;1.70;;;14.30;99.90;;;;;;5040334;28;20036;-77
2022/12/31 09:53:32;;;;;;;5.22;2.03;;;14.40;99.90;;;;;;5021718;28;20039;-76
2022/12/31 09:56:21;;;;;;;4.35;1.67;;;14.50;99.90;;;;;;5035616;28;20021;-76
2022/12/31 09:59:02;;;;;;;4.55;1.40;;;14.60;99.90;;;;;;5034701;28;20016;-76
2022/12/31 10:01:44;;;;;;;7.18;1.83;;;14.60;99.90;;;;;;5045396;28;20054;-76
2022/12/31 10:04:28;;;;;;;5.95;1.70;;;14.60;99.90;;;;;;5041949;28;20052;-75
2022/12/31 10:07:27;;;;;;;6.15;1.60;;;14.70;99.90;;;;;;5053440;28;20040;-77
2022/12/31 10:09:59;;;;;;;5.00;1.52;;;14.80;99.90;;;;;;5037650;28;20484;-77
2022/12/31 10:12:54;;;;;;;3.28;1.17;;;14.90;99.90;;;;;;5039893;28;20533;-77
2022/12/31 10:15:41;;;;;;;7.10;1.27;;;14.90;99.90;;;;;;5039458;28;20112;-77
2022/12/31 10:18:41;;;;;;;7.68;1.35;;;15.00;99.90;;;;;;5027852;28;20069;-77
2022/12/31 10:21:18;;;;;;;3.10;0.95;;;15.10;99.90;;;;;;5042817;28;20047;-75
2022/12/31 10:24:15;;;;;;;3.80;1.15;;;15.10;99.90;;;;;;5019809;28;20030;-76
2022/12/31 10:26:52;;;;;;;6.05;0.95;;;15.20;99.90;;;;;;5047381;28;20045;-75
2022/12/31 10:29:40;;;;;;;4.85;1.13;;;15.20;99.90;;;;;;5040523;28;20557;-75
2022/12/31 10:32:24;;;;;;;6.68;1.30;;;15.30;99.90;;;;;;5041493;28;20494;-76
2022/12/31 10:35:13;;;;;;;5.07;1.10;;;15.40;99.90;;;;;;5046136;28;20052;-76
2022/12/31 10:38:17;;;;;;;4.43;1.48;;;15.40;99.90;;;;;;5042086;28;20040;-75
2022/12/31 10:40:55;;;;;;;2.95;1.40;;;15.50;99.90;;;;;;5038748;28;20036;-75
2022/12/31 10:43:56;;;;;;;4.07;1.13;;;15.50;99.90;;;;;;5033528;28;20021;-72
2022/12/31 10:46:49;;;;;;;3.55;1.30;;;15.50;99.90;;;;;;5037957;28;20028;-72
2022/12/31 10:49:42;;;;;;;4.50;1.55;;;15.50;99.90;;;;;;5032845;28;20056;-72
2022/12/31 10:52:36;;;;;;;4.82;1.10;;;15.50;99.90;;;;;;5032265;28;20722;-72
2022/12/31 10:55:38;;;;;;;5.63;0.90;;;15.60;99.90;;;;;;5032054;28;20038;-73
2022/12/31 10:58:13;;;;;;;5.50;1.40;;;15.60;99.90;;;;;;5027234;28;20387;-73
2022/12/31 11:01:09;;;;;;;8.02;1.75;;;15.70;99.90;;;;;;5033746;28;20150;-71
2022/12/31 11:04:02;;;;;;;6.07;1.13;;;15.60;99.90;;;;;;5037756;28;20061;-74
2022/12/31 11:07:02;;;;;;;6.47;1.60;;;15.60;99.90;;;;;;5037333;28;20118;-73
2022/12/31 11:09:45;;;;;;;5.03;1.30;;;15.70;99.90;;;;;;5036603;28;20091;-73
2022/12/31 11:12:31;;;;;;;6.38;1.40;;;15.70;99.90;;;;;;5034961;28;20802;-74
2022/12/31 11:14:58;;;;;;;5.70;1.60;;;15.70;99.90;;;;;;5032655;28;20036;-72
2022/12/31 11:17:46;;;;;;;7.30;1.85;;;15.70;99.90;;;;;;5033301;28;20036;-74
2022/12/31 11:20:28;;;;;;;5.75;1.80;;;15.70;99.90;;;;;;5019458;28;20059;-72
2022/12/31 11:23:21;;;;;;;6.00;1.67;;;15.70;99.90;;;;;;5040302;28;20112;-74
2022/12/31 11:26:13;;;;;;;9.30;2.25;;;15.70;99.90;;;;;;5037333;28;20043;-73
2022/12/31 11:28:53;;;;;;;9.82;1.92;;;15.70;99.90;;;;;;5032283;28;20483;-73
2022/12/31 11:31:33;;;;;;;6.32;2.03;;;15.70;99.60;;;;;;5037930;28;20032;-74
2022/12/31 11:34:20;;;;;;;8.90;1.58;;;15.70;99.70;;;;;;5032392;28;20126;-73
2022/12/31 11:37:18;;;;;;;9.18;2.08;;;15.80;99.10;;;;;;5031788;28;20730;-73
2022/12/31 11:40:03;;;;;;;6.97;2.13;;;15.80;99.50;;;;;;5002756;28;20071;-74
2022/12/31 11:42:49;;;;;;;8.35;2.45;;;15.90;98.90;;;;;;5016141;28;20025;-75
2022/12/31 11:45:43;;;;;;;6.00;2.13;;;15.80;99.00;;;;;;5032595;28;20033;-73
2022/12/31 11:48:28;;;;;;;7.72;2.08;;;15.90;98.80;;;;;;5031166;28;20036;-72
2022/12/31 11:51:02;;;;;;;7.60;1.75;;;15.90;99.00;;;;;;5033170;28;20033;-74
2022/12/31 11:53:39;;;;;;;6.68;2.05;;;15.90;98.90;;;;;;5033160;28;20021;-73
2022/12/31 11:56:24;;;;;;;7.53;2.35;;;15.90;98.60;;;;;;5032165;28;20016;-74
2022/12/31 11:58:54;;;;;;;7.22;1.52;;;16.00;98.40;;;;;;5017191;28;20136;-74
2022/12/31 12:01:35;;;;;;;9.15;1.90;;;16.00;98.20;;;;;;5010221;28;20047;-74
2022/12/31 12:04:01;;;;;;;6.95;1.42;;;16.10;98.20;;;;;;5030996;28;20029;-75
2022/12/31 12:06:30;;;;;;;7.20;1.58;;;16.10;98.10;;;;;;5033149;28;20051;-73
2022/12/31 12:09:01;;;;;;;4.80;1.33;;;16.10;97.80;;;;;;5033518;28;20029;-73
2022/12/31 12:11:31;;;;;;;6.70;1.33;;;16.20;97.40;;;;;;5031479;28;20045;-73
2022/12/31 12:13:57;;;;;;;;;;;16.20;97.00;;;;;;5034337;28;20044;-72
2022/12/31 12:16:25;;;;;;;6.57;1.40;;;16.20;96.70;;;;;;5033030;28;19908;-73
2022/12/31 12:19:03;;;;;;;6.10;1.20;;;16.30;96.50;;;;;;5031766;28;20036;-74
2022/12/31 12:21:29;;;;;;;6.65;1.30;;;16.30;96.40;;;;;;5036399;28;21379;-74
2022/12/31 12:23:57;;;;;;;6.30;1.52;;;16.40;96.10;;;;;;5033015;28;20030;-72
2022/12/31 12:26:25;;;;;;;10.35;1.83;;;16.40;96.10;;;;;;5013363;28;20163;-70
2022/12/31 12:28:51;;;;;;;10.23;1.85;;;16.40;96.20;;;;;;5036290;28;20432;-74
2022/12/31 12:31:22;;;;;;;6.60;1.40;;;16.40;96.20;;;;;;5032657;28;20048;-72
2022/12/31 12:33:49;;;;;;;4.28;1.38;;;16.40;96.20;;;;;;5033003;28;20025;-74
2022/12/31 12:36:17;;;;;;;8.63;1.40;;;16.40;96.30;;;;;;5033064;28;20025;-74
2022/12/31 12:38:44;;;;;;;9.07;1.60;;;16.30;96.80;;;;;;5031192;28;20704;-72
2022/12/31 12:41:24;;;;;;;7.00;1.45;;;16.20;97.10;;;;;;5021827;28;20525;-75
2022/12/31 12:44:15;;;;;;;10.60;1.88;;;16.20;97.20;;;;;;5034837;28;20151;-73
2022/12/31 12:46:47;;;;;;;5.53;2.20;;;16.20;97.20;;;;;;5032715;28;20021;-73
2022/12/31 12:49:28;;;;;;;7.55;1.70;;;16.10;97.30;;;;;;5033969;28;20491;-72
2022/12/31 12:52:36;;;;;;;8.27;2.30;;;16.10;97.20;;;;;;5030718;28;20132;-73
2022/12/31 12:55:16;;;;;;;6.43;1.45;;;16.10;97.30;;;;;;5033042;28;20021;-72
2022/12/31 12:57:59;;;;;;;5.40;2.00;;;16.10;97.30;;;;;;5032263;28;20017;-73
2022/12/31 13:00:34;;;;;;;7.07;2.08;;;16.10;97.00;;;;;;5034064;28;20064;-73
2022/12/31 13:03:28;;;;;;;6.53;1.90;;;16.00;97.30;;;;;;5026916;28;20032;-72
2022/12/31 13:06:21;;;;;;;5.63;1.75;;;16.00;97.20;;;;;;5034233;28;20038;-73
2022/12/31 13:09:16;;;;;;;6.72;1.52;;;16.00;97.20;;;;;;5030054;28;20029;-75
2022/12/31 13:11:57;;;;;;;5.57;1.40;;;16.00;97.10;;;;;;5029621;28;20037;-73
2022/12/31 13:14:28;;;;;;;6.57;1.70;;;16.10;96.90;;;;;;5025958;28;20021;-74
2022/12/31 13:17:42;;;;;;;8.50;2.00;;;16.00;97.10;;;;;;5016476;28;20043;-74
2022/12/31 13:20:22;;;;;;;11.85;2.92;;;16.10;96.90;;;;;;4989548;28;20049;-73
2022/12/31 13:22:57;;;;;;;10.73;2.70;;;16.00;97.20;;;;;;5030859;28;20025;-75
2022/12/31 13:25:57;;;;;;;6.30;2.38;;;16.00;97.30;;;;;;5034288;28;20045;-73
2022/12/31 13:28:24;;;;;;;6.53;1.80;;;16.00;97.20;;;;;;5020696;28;20041;-74
2022/12/31 13:30:55;;;;;;;5.05;1.42;;;16.00;97.20;;;;;;5012025;28;20029;-74
2022/12/31 13:33:35;;;;;;;5.07;1.33;;;16.00;97.20;;;;;;5030116;28;20653;-74
2022/12/31 13:36:04;;;;;;;6.40;1.67;;;15.90;97.10;;;;;;5028509;28;20017;-74
2022/12/31 13:38:35;;;;;;;6.90;1.77;;;16.00;97.10;;;;;;5029049;28;20035;-74
2022/12/31 13:41:07;;;;;;;7.30;1.75;;;16.00;97.20;;;;;;5031269;28;20025;-76
2022/12/31 13:43:33;;;;;;;6.18;1.77;;;16.00;97.20;;;;;;5029723;28;20475;-75